Time;durP1;ratioP1;P1;durP2;ratioP2;P2;SDS_P1;SDS_P2;PMS_P1;PMS_P2;Temp;Humidity;BMP_temperature;BMP_pressure;BME280_temperature;BME280_humidity;BME280_pressure;Samples;Min_cycle;Max_cycle;Signal;HPM_P1;HPM_P2
2022/10/27 00:01:56;;;;;;;7.43;2.80;;;11.40;99.90;;;;;;5093170;28;20040;-84
2022/10/27 00:04:23;;;;;;;6.57;2.47;;;11.40;99.90;;;;;;5076448;28;20480;-83
2022/10/27 00:06:49;;;;;;;9.98;2.85;;;11.40;99.90;;;;;;5092637;28;20607;-83
2022/10/27 00:09:16;;;;;;;7.00;3.03;;;11.40;99.90;;;;;;5093298;28;20762;-84
2022/10/27 00:11:43;;;;;;;6.07;2.90;;;11.40;99.90;;;;;;5109530;28;20040;-83
2022/10/27 00:14:09;;;;;;;9.77;2.78;;;11.40;99.90;;;;;;5109805;28;20058;-83
2022/10/27 00:16:36;;;;;;;8.60;2.97;;;11.40;99.90;;;;;;5092985;28;20044;-83
2022/10/27 00:19:03;;;;;;;8.27;3.70;;;11.50;99.90;;;;;;5109431;28;20059;-83
2022/10/27 00:21:30;;;;;;;9.05;3.20;;;11.50;99.90;;;;;;5093000;28;20095;-84
2022/10/27 00:23:56;;;;;;;11.75;3.45;;;11.50;99.90;;;;;;5092779;28;20085;-84
2022/10/27 00:26:23;;;;;;;9.48;3.58;;;11.50;99.90;;;;;;5089386;28;20040;-83
2022/10/27 00:28:50;;;;;;;7.20;3.00;;;11.50;99.90;;;;;;5056335;28;20051;-83
2022/10/27 00:31:21;;;;;;;8.15;3.15;;;11.50;99.90;;;;;;5056265;28;20113;-84
2022/10/27 00:33:48;;;;;;;9.73;3.13;;;11.60;99.90;;;;;;5089127;28;20044;-83
2022/10/27 00:36:18;;;;;;;6.10;3.25;;;11.60;99.90;;;;;;5076033;28;20093;-84
2022/10/27 00:38:45;;;;;;;9.70;3.30;;;11.60;99.90;;;;;;5109277;28;20036;-84
2022/10/27 00:41:23;;;;;;;6.68;2.47;;;11.60;99.90;;;;;;5126093;28;20090;-84
2022/10/27 00:43:50;;;;;;;8.02;2.85;;;11.60;99.90;;;;;;5109022;28;20528;-83
2022/10/27 00:46:42;;;;;;;8.57;2.67;;;11.50;99.90;;;;;;5092200;28;20127;-83
2022/10/27 00:49:12;;;;;;;7.38;3.60;;;11.50;99.90;;;;;;5089194;28;20546;-83
2022/10/27 00:51:47;;;;;;;5.40;2.85;;;11.40;99.90;;;;;;5095500;28;20119;-83
2022/10/27 00:54:16;;;;;;;8.80;2.85;;;11.40;99.90;;;;;;5100487;28;20047;-83
2022/10/27 00:56:46;;;;;;;6.82;3.00;;;11.40;99.90;;;;;;5089912;28;20105;-83
2022/10/27 00:59:13;;;;;;;4.80;2.17;;;11.30;99.90;;;;;;5088875;28;20048;-83
2022/10/27 01:01:41;;;;;;;7.82;2.88;;;11.30;99.90;;;;;;5072146;28;20428;-83
2022/10/27 01:04:08;;;;;;;7.25;2.90;;;11.30;99.90;;;;;;5089047;28;20040;-83
2022/10/27 01:06:35;;;;;;;7.10;2.83;;;11.20;99.90;;;;;;5072322;28;20485;-83
2022/10/27 01:09:02;;;;;;;7.43;2.90;;;11.20;99.90;;;;;;5085950;28;20043;-83
2022/10/27 01:11:29;;;;;;;6.47;2.55;;;11.20;99.90;;;;;;5088987;28;20430;-83
2022/10/27 01:13:56;;;;;;;11.13;2.90;;;11.20;99.90;;;;;;5072043;28;20040;-83
2022/10/27 01:16:50;;;;;;;11.48;3.40;;;11.10;99.90;;;;;;5088804;28;20076;-83
2022/10/27 01:20:10;;;;;;;11.52;3.50;;;11.20;99.90;;;;;;5099464;28;20055;-83
2022/10/27 01:22:39;;;;;;;9.65;3.75;;;11.20;99.90;;;;;;5088490;28;20167;-84
2022/10/27 01:25:18;;;;;;;6.65;3.05;;;11.30;99.90;;;;;;5088836;28;20080;-84
2022/10/27 01:28:17;;;;;;;13.13;3.95;;;11.30;99.90;;;;;;5088842;28;20037;-83
2022/10/27 01:30:56;;;;;;;7.63;3.80;;;11.40;99.90;;;;;;5125762;28;20040;-84
2022/10/27 01:33:35;;;;;;;9.30;4.07;;;11.50;99.90;;;;;;5109023;28;20044;-83
2022/10/27 01:36:09;;;;;;;8.13;3.38;;;11.50;99.90;;;;;;5108687;28;20043;-84
2022/10/27 01:38:53;;;;;;;9.60;3.50;;;11.50;99.90;;;;;;5108769;28;20041;-84
2022/10/27 01:41:33;;;;;;;11.02;3.90;;;11.50;99.90;;;;;;5108762;28;20377;-84
2022/10/27 01:44:07;;;;;;;11.15;3.72;;;11.50;99.90;;;;;;5108831;28;20237;-84
2022/10/27 01:46:35;;;;;;;8.65;3.38;;;11.40;99.90;;;;;;5112084;28;20510;-83
2022/10/27 01:49:05;;;;;;;9.85;3.47;;;11.50;99.90;;;;;;5095362;28;20101;-83
2022/10/27 01:51:32;;;;;;;8.18;3.42;;;11.40;99.90;;;;;;5096081;28;20032;-84
2022/10/27 01:53:59;;;;;;;13.23;3.78;;;11.40;99.90;;;;;;5079118;28;20084;-83
2022/10/27 01:56:43;;;;;;;8.65;3.85;;;11.40;99.90;;;;;;5096311;28;20036;-84
2022/10/27 01:59:35;;;;;;;9.65;3.90;;;11.40;99.90;;;;;;5112119;28;20040;-83
2022/10/27 02:02:23;;;;;;;9.27;3.40;;;11.40;99.90;;;;;;5128823;28;20063;-83
2022/10/27 02:04:55;;;;;;;9.45;3.70;;;11.50;99.90;;;;;;5111714;28;20066;-83
2022/10/27 02:07:35;;;;;;;6.50;3.75;;;11.60;99.90;;;;;;5112277;28;20047;-84
2022/10/27 02:10:10;;;;;;;11.35;4.20;;;11.70;99.90;;;;;;5111901;28;20403;-84
2022/10/27 02:12:38;;;;;;;12.00;4.50;;;11.60;99.90;;;;;;5112324;28;20736;-84
2022/10/27 02:15:13;;;;;;;10.50;4.05;;;11.80;99.90;;;;;;5111859;28;20495;-84
2022/10/27 02:17:44;;;;;;;13.45;4.28;;;11.80;99.90;;;;;;5128811;28;20071;-84
2022/10/27 02:20:21;;;;;;;12.32;4.55;;;11.90;99.90;;;;;;5111548;28;20048;-83
2022/10/27 02:22:52;;;;;;;15.52;4.40;;;12.00;99.90;;;;;;5111302;28;20411;-83
2022/10/27 02:25:28;;;;;;;10.32;4.22;;;12.00;99.90;;;;;;5128519;28;20451;-83
2022/10/27 02:28:00;;;;;;;11.88;4.32;;;12.00;99.90;;;;;;5111290;28;20036;-84
2022/10/27 02:30:28;;;;;;;9.10;4.13;;;12.10;99.90;;;;;;5111771;28;20514;-83
2022/10/27 02:32:54;;;;;;;10.57;4.85;;;12.10;99.90;;;;;;5111150;28;20038;-83
2022/10/27 02:35:22;;;;;;;9.27;4.15;;;12.10;99.90;;;;;;5077905;28;20484;-83
2022/10/27 02:37:48;;;;;;;13.38;4.40;;;12.10;99.90;;;;;;5078262;28;20032;-83
2022/10/27 02:40:15;;;;;;;10.02;4.03;;;12.00;99.90;;;;;;5078505;28;20059;-83
2022/10/27 02:42:42;;;;;;;7.50;3.85;;;11.90;99.90;;;;;;5078286;28;20124;-83
2022/10/27 02:45:09;;;;;;;9.85;3.97;;;11.90;99.90;;;;;;5094217;28;20048;-83
2022/10/27 02:47:35;;;;;;;11.57;3.55;;;11.80;99.90;;;;;;5075821;28;20489;-84
2022/10/27 02:50:02;;;;;;;8.23;3.83;;;11.80;99.90;;;;;;5074114;28;20069;-83
2022/10/27 02:52:29;;;;;;;8.30;3.67;;;11.70;99.90;;;;;;5074383;28;20040;-84
2022/10/27 02:54:55;;;;;;;11.30;3.80;;;11.70;99.90;;;;;;5074215;28;20102;-84
2022/10/27 02:57:22;;;;;;;12.52;3.95;;;11.60;99.90;;;;;;5070787;28;20036;-83
2022/10/27 02:59:49;;;;;;;6.82;3.90;;;11.60;99.90;;;;;;5094428;28;20543;-84
2022/10/27 03:02:15;;;;;;;9.10;3.35;;;11.50;99.90;;;;;;5094170;28;20047;-83
2022/10/27 03:04:42;;;;;;;6.55;3.33;;;11.50;99.90;;;;;;5077818;28;20044;-83
2022/10/27 03:07:09;;;;;;;9.10;3.35;;;11.40;99.90;;;;;;5073899;28;20036;-83
2022/10/27 03:09:35;;;;;;;8.52;3.42;;;11.40;99.90;;;;;;5090764;28;20040;-83
2022/10/27 03:12:02;;;;;;;7.55;3.50;;;11.40;99.90;;;;;;5073645;28;20040;-83
2022/10/27 03:14:29;;;;;;;6.43;3.40;;;11.40;99.90;;;;;;5057368;28;20040;-83
2022/10/27 03:16:56;;;;;;;7.15;3.63;;;11.40;99.90;;;;;;5077954;28;20066;-83
2022/10/27 03:19:22;;;;;;;8.60;3.17;;;11.30;99.90;;;;;;5094209;28;20105;-84
2022/10/27 03:21:49;;;;;;;9.75;3.70;;;11.30;99.90;;;;;;5076874;28;20056;-83
2022/10/27 03:24:16;;;;;;;7.82;3.10;;;11.30;99.90;;;;;;5077202;28;20046;-83
2022/10/27 03:26:42;;;;;;;7.70;3.50;;;11.30;99.90;;;;;;5093958;28;20052;-83
2022/10/27 03:29:09;;;;;;;6.82;3.40;;;11.30;99.90;;;;;;5076297;28;20101;-83
2022/10/27 03:31:35;;;;;;;7.55;3.28;;;11.30;99.90;;;;;;5110686;28;20131;-84
2022/10/27 03:34:02;;;;;;;12.00;3.30;;;11.30;99.90;;;;;;5093772;28;20032;-84
2022/10/27 03:36:29;;;;;;;10.70;3.70;;;11.30;99.90;;;;;;5094035;28;20044;-83
2022/10/27 03:38:56;;;;;;;7.13;3.45;;;11.30;99.90;;;;;;5093253;28;20138;-84
2022/10/27 03:41:22;;;;;;;9.45;3.88;;;11.40;99.90;;;;;;5110356;28;20476;-84
2022/10/27 03:43:49;;;;;;;9.23;3.42;;;11.30;99.90;;;;;;5093587;28;20070;-84
2022/10/27 03:46:19;;;;;;;13.65;4.22;;;11.30;99.90;;;;;;5109581;28;20097;-83
2022/10/27 03:48:46;;;;;;;9.95;3.70;;;11.30;99.90;;;;;;5077636;28;20040;-83
2022/10/27 03:51:12;;;;;;;15.15;3.85;;;11.40;99.90;;;;;;5093181;28;20044;-84
2022/10/27 03:53:39;;;;;;;11.45;3.83;;;11.40;99.90;;;;;;5093653;28;20043;-83
2022/10/27 03:56:06;;;;;;;7.05;3.47;;;11.40;99.90;;;;;;5093237;28;20047;-84
2022/10/27 03:58:36;;;;;;;12.88;4.10;;;11.40;99.90;;;;;;5076641;28;20040;-84
2022/10/27 04:01:04;;;;;;;9.45;4.03;;;11.40;99.90;;;;;;5077259;28;20036;-84
2022/10/27 04:03:32;;;;;;;8.95;4.65;;;11.50;99.90;;;;;;5109532;28;20043;-84
2022/10/27 04:05:58;;;;;;;8.70;4.40;;;11.50;99.90;;;;;;5093102;28;20507;-84
2022/10/27 04:08:25;;;;;;;12.43;5.03;;;11.60;99.90;;;;;;5089800;28;20041;-84
2022/10/27 04:10:52;;;;;;;10.32;4.80;;;11.00;99.90;;;;;;5068021;28;20178;-84
2022/10/27 04:13:19;;;;;;;14.02;4.70;;;11.60;99.90;;;;;;5107812;28;20079;-84
2022/10/27 04:15:48;;;;;;;15.02;4.97;;;11.70;99.90;;;;;;5092605;28;20036;-84
2022/10/27 04:18:15;;;;;;;14.73;4.57;;;11.60;99.90;;;;;;5092383;28;20055;-83
2022/10/27 04:20:42;;;;;;;12.05;5.20;;;11.70;99.90;;;;;;5109390;28;20040;-83
2022/10/27 04:23:08;;;;;;;8.63;4.60;;;11.70;99.90;;;;;;5092202;28;20056;-83
2022/10/27 04:25:35;;;;;;;11.13;4.25;;;11.70;99.90;;;;;;5093145;28;20040;-84
2022/10/27 04:28:04;;;;;;;8.82;4.38;;;11.60;99.90;;;;;;5092683;28;20039;-84
2022/10/27 04:30:31;;;;;;;10.70;4.30;;;11.60;99.90;;;;;;5109158;28;20040;-84
2022/10/27 04:32:58;;;;;;;7.00;4.18;;;11.60;99.90;;;;;;5088775;28;20047;-83
2022/10/27 04:35:25;;;;;;;10.32;4.65;;;11.50;99.90;;;;;;5089539;28;20098;-83
2022/10/27 04:37:55;;;;;;;8.38;4.22;;;11.50;99.90;;;;;;5088985;28;20082;-83
2022/10/27 04:40:22;;;;;;;9.93;4.18;;;11.50;99.90;;;;;;5072128;28;20032;-84
2022/10/27 04:42:49;;;;;;;8.65;4.30;;;11.50;99.90;;;;;;5088816;28;20037;-83
2022/10/27 04:45:16;;;;;;;9.75;4.65;;;11.40;99.90;;;;;;5072092;28;20039;-84
2022/10/27 04:47:44;;;;;;;13.30;4.70;;;11.40;99.90;;;;;;5072371;28;20767;-84
2022/10/27 04:50:12;;;;;;;7.22;4.20;;;11.40;99.90;;;;;;5072428;28;20466;-84
2022/10/27 04:52:38;;;;;;;11.38;4.30;;;11.40;99.90;;;;;;5072123;28;20523;-84
2022/10/27 04:55:06;;;;;;;8.25;4.45;;;11.40;99.90;;;;;;5088827;28;20044;-84
2022/10/27 04:57:35;;;;;;;11.05;4.10;;;11.40;99.90;;;;;;5106061;28;20045;-84
2022/10/27 05:00:03;;;;;;;11.13;4.35;;;11.50;99.90;;;;;;5072103;28;20037;-84
2022/10/27 05:02:29;;;;;;;12.15;4.97;;;11.50;99.90;;;;;;5072427;28;20037;-84
2022/10/27 05:04:56;;;;;;;8.38;4.20;;;11.50;99.90;;;;;;5088877;28;20059;-84
2022/10/27 05:07:23;;;;;;;15.57;5.05;;;11.50;99.90;;;;;;5088459;28;20040;-83
2022/10/27 05:09:49;;;;;;;10.50;4.78;;;11.50;99.90;;;;;;5072380;28;20155;-84
2022/10/27 05:12:16;;;;;;;15.07;5.00;;;11.60;99.90;;;;;;5102884;28;20482;-84
2022/10/27 05:14:43;;;;;;;11.02;5.05;;;11.60;99.90;;;;;;5092709;28;20052;-84
2022/10/27 05:17:09;;;;;;;8.57;4.55;;;11.60;99.90;;;;;;5075293;28;20036;-84
2022/10/27 05:19:36;;;;;;;13.00;5.22;;;11.60;99.90;;;;;;5109183;28;20814;-84
2022/10/27 05:22:03;;;;;;;10.35;4.28;;;11.50;99.90;;;;;;5086349;28;20074;-84
2022/10/27 05:24:29;;;;;;;9.02;4.70;;;11.50;99.90;;;;;;5096489;28;20135;-84
2022/10/27 05:26:56;;;;;;;9.38;4.57;;;11.50;99.90;;;;;;5079605;28;20039;-84
2022/10/27 05:29:24;;;;;;;8.82;4.78;;;11.60;99.90;;;;;;5079250;28;20040;-83
2022/10/27 05:31:51;;;;;;;7.93;4.35;;;11.50;99.90;;;;;;5079751;28;20525;-84
2022/10/27 05:34:18;;;;;;;12.13;4.60;;;11.50;99.90;;;;;;5092314;28;20029;-84
2022/10/27 05:36:46;;;;;;;10.77;5.10;;;11.50;99.90;;;;;;5075576;28;20059;-84
2022/10/27 05:39:13;;;;;;;10.15;4.60;;;11.40;99.90;;;;;;5075463;28;20078;-84
2022/10/27 05:41:40;;;;;;;10.38;4.32;;;11.50;99.90;;;;;;5059125;28;20040;-84
2022/10/27 05:44:06;;;;;;;10.68;4.93;;;11.50;99.90;;;;;;5091827;28;20047;-84
2022/10/27 05:46:33;;;;;;;13.55;5.50;;;11.50;99.90;;;;;;5091964;28;20040;-83
2022/10/27 05:49:00;;;;;;;8.20;5.03;;;11.80;99.90;;;;;;5091953;28;20052;-84
2022/10/27 05:51:26;;;;;;;12.38;4.82;;;11.60;99.90;;;;;;5074988;28;20133;-84
2022/10/27 05:53:55;;;;;;;10.55;5.53;;;11.60;99.90;;;;;;5058660;28;20041;-83
2022/10/27 05:56:21;;;;;;;14.00;5.28;;;11.60;99.90;;;;;;5075569;28;20041;-84
2022/10/27 05:58:48;;;;;;;11.40;5.30;;;11.60;99.90;;;;;;5075069;28;20040;-83
2022/10/27 06:01:15;;;;;;;9.68;4.90;;;11.60;99.90;;;;;;5058163;28;20036;-84
2022/10/27 06:03:41;;;;;;;11.60;4.90;;;11.60;99.90;;;;;;5075102;28;20039;-84
2022/10/27 06:06:08;;;;;;;9.68;4.65;;;11.60;99.90;;;;;;5058145;28;20032;-84
2022/10/27 06:08:35;;;;;;;11.60;4.60;;;11.50;99.90;;;;;;5058461;28;20045;-84
2022/10/27 06:11:02;;;;;;;10.18;4.63;;;11.60;99.90;;;;;;5091481;28;20076;-84
2022/10/27 06:13:29;;;;;;;9.50;4.43;;;11.60;99.90;;;;;;5091136;28;20043;-84
2022/10/27 06:15:55;;;;;;;9.20;4.40;;;11.60;99.90;;;;;;5074520;28;20052;-84
2022/10/27 06:18:22;;;;;;;20.08;4.90;;;11.60;99.90;;;;;;5108250;28;20045;-84
2022/10/27 06:20:49;;;;;;;10.05;4.75;;;11.60;99.90;;;;;;5108036;28;20046;-84
2022/10/27 06:23:15;;;;;;;11.18;4.65;;;11.60;99.90;;;;;;5074257;28;20105;-84
2022/10/27 06:25:42;;;;;;;11.70;4.82;;;11.60;99.90;;;;;;5092713;28;20048;-84
2022/10/27 06:28:09;;;;;;;10.52;4.18;;;11.60;99.90;;;;;;5094235;28;20047;-84
2022/10/27 06:30:35;;;;;;;9.52;4.35;;;11.60;99.90;;;;;;5094543;28;20560;-84
2022/10/27 06:33:02;;;;;;;13.27;4.70;;;11.60;99.90;;;;;;5111447;28;20388;-84
2022/10/27 06:35:29;;;;;;;10.57;4.45;;;11.60;99.90;;;;;;5094295;28;20068;-84
2022/10/27 06:37:56;;;;;;;9.05;4.63;;;11.60;99.90;;;;;;5111542;28;20036;-85
2022/10/27 06:40:22;;;;;;;11.80;4.10;;;11.70;99.90;;;;;;5094146;28;20059;-84
2022/10/27 06:42:49;;;;;;;10.40;4.57;;;11.60;99.90;;;;;;5094320;28;20032;-85
2022/10/27 06:45:17;;;;;;;10.05;4.80;;;11.60;99.90;;;;;;5094680;28;20050;-85
2022/10/27 06:47:44;;;;;;;8.98;4.05;;;11.70;99.90;;;;;;5110556;28;20128;-84
2022/10/27 06:50:12;;;;;;;14.13;4.68;;;11.70;99.90;;;;;;5085002;28;20048;-84
2022/10/27 06:52:38;;;;;;;10.77;4.80;;;11.80;99.90;;;;;;5109125;28;20032;-84
2022/10/27 06:55:06;;;;;;;10.45;4.10;;;11.80;99.90;;;;;;5080187;28;20090;-84
2022/10/27 06:57:40;;;;;;;11.30;4.63;;;11.90;99.90;;;;;;5084996;28;20046;-84
2022/10/27 07:00:08;;;;;;;9.15;4.72;;;11.90;99.90;;;;;;5101987;28;20086;-84
2022/10/27 07:02:35;;;;;;;11.77;4.30;;;12.00;99.90;;;;;;5083101;28;20119;-84
2022/10/27 07:05:04;;;;;;;10.05;4.72;;;12.10;99.90;;;;;;5104374;28;20123;-84
2022/10/27 07:07:31;;;;;;;10.30;4.63;;;12.10;99.90;;;;;;5083503;28;20063;-84
2022/10/27 07:09:57;;;;;;;11.77;5.30;;;12.20;99.90;;;;;;5102631;28;20040;-84
2022/10/27 07:12:25;;;;;;;12.13;5.07;;;12.30;99.90;;;;;;5127335;28;20036;-84
2022/10/27 07:14:51;;;;;;;10.52;5.00;;;12.40;99.90;;;;;;5094508;28;20126;-84
2022/10/27 07:17:18;;;;;;;13.02;5.00;;;12.40;99.90;;;;;;5068786;28;20140;-84
2022/10/27 07:19:45;;;;;;;14.07;5.20;;;12.50;99.90;;;;;;5086155;28;20101;-81
2022/10/27 07:22:11;;;;;;;14.43;5.05;;;12.60;99.90;;;;;;5107720;28;20052;-82
2022/10/27 07:24:38;;;;;;;16.38;5.28;;;12.60;99.90;;;;;;5093512;28;20040;-83
2022/10/27 07:27:05;;;;;;;13.20;5.30;;;12.70;99.90;;;;;;5093815;28;20032;-82
2022/10/27 07:29:35;;;;;;;18.38;6.43;;;12.80;99.90;;;;;;5093474;28;20048;-84
2022/10/27 07:32:01;;;;;;;20.65;11.27;;;12.80;99.90;;;;;;5093903;28;20488;-85
2022/10/27 07:34:28;;;;;;;28.33;13.52;;;12.90;99.90;;;;;;5076720;28;20051;-84
2022/10/27 07:36:55;;;;;;;38.78;17.13;;;12.90;99.90;;;;;;5092992;28;20036;-84
2022/10/27 07:39:21;;;;;;;34.75;17.55;;;13.00;99.90;;;;;;5110152;28;20036;-84
2022/10/27 07:41:48;;;;;;;27.55;14.93;;;13.00;99.90;;;;;;5093390;28;20078;-83
2022/10/27 07:44:15;;;;;;;24.48;12.77;;;13.00;99.90;;;;;;5126141;28;20043;-81
2022/10/27 07:46:41;;;;;;;19.70;10.20;;;13.10;99.90;;;;;;5093057;28;20123;-82
2022/10/27 07:49:08;;;;;;;20.35;9.50;;;13.10;99.90;;;;;;5066904;28;20040;-83
2022/10/27 07:51:35;;;;;;;12.38;6.07;;;13.10;99.90;;;;;;5083057;28;20036;-83
2022/10/27 07:54:01;;;;;;;13.43;5.70;;;13.20;99.90;;;;;;5068377;28;20047;-83
2022/10/27 07:56:29;;;;;;;10.23;5.22;;;13.20;99.90;;;;;;5093626;28;20040;-83
2022/10/27 07:58:56;;;;;;;11.77;5.15;;;13.70;99.90;;;;;;5110251;28;20044;-83
2022/10/27 08:01:25;;;;;;;10.85;4.85;;;12.60;99.90;;;;;;5076624;28;20044;-83
2022/10/27 08:03:52;;;;;;;8.73;4.40;;;13.30;99.90;;;;;;5076597;28;20115;-84
2022/10/27 08:06:19;;;;;;;9.05;5.13;;;13.30;99.90;;;;;;5093350;28;20119;-83
2022/10/27 08:08:46;;;;;;;9.70;5.07;;;13.40;99.90;;;;;;5109654;28;20648;-84
2022/10/27 08:11:13;;;;;;;11.45;5.47;;;13.40;99.90;;;;;;5093116;28;20047;-84
2022/10/27 08:13:39;;;;;;;11.70;4.97;;;13.40;99.90;;;;;;5092991;28;20036;-84
2022/10/27 08:16:06;;;;;;;10.43;4.78;;;13.40;99.90;;;;;;5076710;28;20044;-84
2022/10/27 08:18:35;;;;;;;10.93;5.30;;;13.50;99.90;;;;;;5075893;28;20127;-84
2022/10/27 08:21:04;;;;;;;13.48;4.80;;;13.50;99.90;;;;;;5076544;28;20040;-84
2022/10/27 08:23:31;;;;;;;12.98;5.03;;;13.50;99.90;;;;;;5092968;28;20056;-84
2022/10/27 08:25:58;;;;;;;11.65;5.28;;;13.60;99.90;;;;;;5109543;28;20055;-84
2022/10/27 08:28:25;;;;;;;14.88;5.63;;;13.60;99.90;;;;;;5093034;28;20044;-84
2022/10/27 08:30:52;;;;;;;16.05;5.88;;;13.70;99.90;;;;;;5075499;28;20040;-84
2022/10/27 08:33:22;;;;;;;10.13;4.95;;;13.70;99.90;;;;;;5109266;28;20040;-83
2022/10/27 08:35:49;;;;;;;10.88;5.47;;;13.80;99.90;;;;;;5103914;28;20412;-84
2022/10/27 08:38:17;;;;;;;9.77;5.18;;;13.80;99.90;;;;;;5092426;28;20047;-84
2022/10/27 08:41:09;;;;;;;17.40;5.63;;;13.90;99.90;;;;;;5092108;28;20118;-84
2022/10/27 08:43:49;;;;;;;12.63;4.85;;;13.90;99.90;;;;;;5096434;28;20047;-84
2022/10/27 08:46:25;;;;;;;10.77;4.93;;;13.90;99.90;;;;;;5094348;28;20035;-85
2022/10/27 08:49:00;;;;;;;8.38;4.65;;;14.00;99.90;;;;;;5105631;28;20045;-84
2022/10/27 08:51:29;;;;;;;12.63;5.00;;;14.00;99.90;;;;;;5094256;28;20039;-84
2022/10/27 08:53:57;;;;;;;9.52;4.50;;;14.00;99.90;;;;;;5109001;28;20275;-84
2022/10/27 08:56:29;;;;;;;12.43;4.57;;;14.00;99.90;;;;;;5096191;28;20043;-85
2022/10/27 08:58:56;;;;;;;12.98;5.40;;;14.00;99.90;;;;;;5113261;28;20097;-84
2022/10/27 09:01:58;;;;;;;12.35;5.05;;;14.10;99.90;;;;;;5093220;28;20111;-84
2022/10/27 09:04:31;;;;;;;10.43;4.43;;;14.00;99.90;;;;;;5099060;28;20040;-85
2022/10/27 09:07:19;;;;;;;12.43;5.22;;;14.10;99.90;;;;;;5108861;28;20135;-84
2022/10/27 09:09:58;;;;;;;10.73;5.40;;;14.20;99.90;;;;;;5100202;28;20040;-84
2022/10/27 09:12:58;;;;;;;10.43;4.88;;;14.30;99.90;;;;;;5127239;28;20396;-84
2022/10/27 09:15:46;;;;;;;11.65;5.43;;;14.40;99.90;;;;;;5112952;28;20134;-84
2022/10/27 09:18:27;;;;;;;12.90;5.60;;;14.60;99.90;;;;;;5130011;28;20518;-85
2022/10/27 09:20:56;;;;;;;11.32;5.10;;;14.70;99.90;;;;;;5112464;28;20044;-84
2022/10/27 09:23:33;;;;;;;10.15;4.32;;;14.80;99.90;;;;;;5112595;28;20544;-84
2022/10/27 09:26:00;;;;;;;10.00;4.90;;;14.90;99.90;;;;;;5112883;28;20119;-84
2022/10/27 09:28:33;;;;;;;9.05;4.90;;;15.00;99.90;;;;;;5113182;28;20119;-85
2022/10/27 09:31:01;;;;;;;10.48;4.50;;;15.10;99.90;;;;;;5108452;28;20093;-84
2022/10/27 09:33:32;;;;;;;14.45;4.90;;;15.20;99.90;;;;;;5096602;28;20039;-84
2022/10/27 09:36:04;;;;;;;10.55;4.65;;;15.30;99.90;;;;;;5113194;28;20488;-85
2022/10/27 09:38:31;;;;;;;11.38;4.72;;;15.40;99.90;;;;;;5128401;28;20464;-84
2022/10/27 09:40:58;;;;;;;12.45;4.05;;;15.50;99.90;;;;;;5077087;28;20042;-84
2022/10/27 09:43:25;;;;;;;11.45;3.70;;;15.60;99.90;;;;;;5073442;28;20407;-84
2022/10/27 09:46:12;;;;;;;7.70;3.53;;;15.70;99.90;;;;;;5093965;28;20040;-85
2022/10/27 09:48:39;;;;;;;9.43;3.30;;;15.70;99.90;;;;;;5092344;28;20059;-85
2022/10/27 09:51:11;;;;;;;9.15;3.10;;;15.80;99.90;;;;;;5079192;28;20055;-84
2022/10/27 09:53:42;;;;;;;8.57;3.22;;;15.90;99.90;;;;;;5112371;28;20040;-85
2022/10/27 09:56:22;;;;;;;8.15;3.10;;;15.90;99.90;;;;;;5107762;28;20040;-85
2022/10/27 09:58:57;;;;;;;6.15;3.30;;;16.00;99.90;;;;;;5129366;28;20040;-85
2022/10/27 10:01:26;;;;;;;7.45;2.78;;;16.10;99.90;;;;;;5129640;28;20044;-85
2022/10/27 10:04:05;;;;;;;5.88;2.40;;;16.20;99.90;;;;;;5128959;28;20043;-85
2022/10/27 10:06:35;;;;;;;7.95;2.63;;;16.30;99.90;;;;;;5111907;28;20476;-86
2022/10/27 10:09:20;;;;;;;7.68;2.75;;;16.40;99.90;;;;;;5128572;28;20040;-85
2022/10/27 10:11:46;;;;;;;8.75;2.13;;;16.40;99.90;;;;;;5111816;28;20047;-85
2022/10/27 10:14:23;;;;;;;9.05;2.30;;;16.50;99.90;;;;;;5074077;28;20066;-84
2022/10/27 10:16:51;;;;;;;7.05;2.00;;;16.50;99.90;;;;;;5081658;28;20608;-85
2022/10/27 10:19:22;;;;;;;4.63;2.10;;;16.50;99.90;;;;;;5110215;28;20044;-85
2022/10/27 10:21:55;;;;;;;5.05;2.13;;;16.50;99.90;;;;;;5112024;28;20055;-85
2022/10/27 10:24:35;;;;;;;4.25;1.85;;;16.50;99.90;;;;;;5104719;28;20043;-86
2022/10/27 10:27:05;;;;;;;5.80;1.98;;;16.60;99.90;;;;;;5085521;28;20044;-85
2022/10/27 10:29:43;;;;;;;4.53;1.80;;;16.70;99.90;;;;;;5092517;28;20040;-85
2022/10/27 10:32:14;;;;;;;6.18;1.90;;;16.70;99.90;;;;;;5103761;28;20067;-85
2022/10/27 10:34:44;;;;;;;5.03;1.95;;;16.80;99.90;;;;;;5128790;28;20123;-85
2022/10/27 10:37:42;;;;;;;3.75;1.65;;;16.90;99.90;;;;;;5104391;28;20036;-85
2022/10/27 10:40:17;;;;;;;3.72;1.50;;;16.90;99.90;;;;;;5108168;28;20040;-85
2022/10/27 10:42:48;;;;;;;;;;;16.90;99.90;;;;;;5127593;28;20040;-85
2022/10/27 10:45:26;;;;;;;3.45;1.17;;;17.00;99.90;;;;;;5119622;27;20288;-85
2022/10/27 10:47:58;;;;;;;3.45;1.30;;;17.00;99.90;;;;;;5101834;28;20044;-86
2022/10/27 10:50:26;;;;;;;3.63;1.42;;;17.10;99.90;;;;;;5113610;28;20051;-86
2022/10/27 10:52:56;;;;;;;4.70;1.30;;;17.10;99.90;;;;;;5104541;28;20040;-86
2022/10/27 10:55:27;;;;;;;5.88;1.50;;;17.10;99.90;;;;;;5108399;28;20035;-87
2022/10/27 10:57:56;;;;;;;3.75;1.60;;;17.20;99.90;;;;;;5110978;28;20040;-86
2022/10/27 11:00:25;;;;;;;4.80;1.23;;;17.20;99.90;;;;;;5128584;28;20115;-86
2022/10/27 11:03:00;;;;;;;3.40;1.27;;;17.30;99.90;;;;;;5110368;28;20039;-86
2022/10/27 11:05:31;;;;;;;4.82;1.50;;;17.40;99.90;;;;;;5111039;28;20485;-86
2022/10/27 11:07:58;;;;;;;5.78;1.23;;;17.40;99.90;;;;;;5126086;28;20073;-86
2022/10/27 11:10:36;;;;;;;4.18;1.42;;;17.40;99.90;;;;;;5094805;28;20039;-87
2022/10/27 11:13:16;;;;;;;2.85;1.20;;;17.40;99.90;;;;;;5127745;28;20040;-86
2022/10/27 11:15:58;;;;;;;4.65;1.30;;;17.40;99.90;;;;;;5102624;28;20523;-87
2022/10/27 11:18:46;;;;;;;5.85;1.50;;;17.40;99.90;;;;;;5107198;28;20155;-87
2022/10/27 11:22:04;;;;;;;5.90;1.70;;;17.40;99.90;;;;;;5090781;28;20531;-87
2022/10/27 11:24:52;;;;;;;2.78;1.23;;;17.50;99.90;;;;;;5086948;28;20048;-87
2022/10/27 11:27:31;;;;;;;2.80;1.05;;;17.60;99.90;;;;;;5128534;28;20040;-87
2022/10/27 11:30:20;;;;;;;7.55;1.17;;;17.70;99.90;;;;;;5111065;28;20515;-86
2022/10/27 11:33:20;;;;;;;3.67;1.15;;;17.70;99.90;;;;;;5111469;28;20040;-86
2022/10/27 11:36:15;;;;;;;3.30;1.00;;;17.80;99.90;;;;;;5111329;28;20051;-86
2022/10/27 11:38:51;;;;;;;3.15;1.17;;;17.80;99.90;;;;;;5111172;28;20040;-87
2022/10/27 11:41:48;;;;;;;2.35;1.05;;;17.90;99.90;;;;;;5110965;28;20032;-87
2022/10/27 11:44:35;;;;;;;4.20;1.20;;;17.90;99.90;;;;;;5110896;28;20115;-87
2022/10/27 11:47:23;;;;;;;2.72;1.02;;;18.00;99.90;;;;;;5102869;28;20064;-86
2022/10/27 11:50:17;;;;;;;3.22;1.20;;;18.00;99.90;;;;;;5109307;28;20040;-87
2022/10/27 11:52:47;;;;;;;3.00;1.13;;;18.00;99.90;;;;;;5106693;28;20066;-87
2022/10/27 11:55:18;;;;;;;12.43;1.38;;;18.00;99.90;;;;;;5125890;28;20047;-86
2022/10/27 11:58:09;;;;;;;3.25;1.00;;;17.90;99.90;;;;;;5127227;28;20415;-87
2022/10/27 12:01:07;;;;;;;4.40;1.10;;;17.90;99.90;;;;;;5112496;28;20063;-87
2022/10/27 12:04:06;;;;;;;5.07;1.20;;;17.90;99.90;;;;;;5099036;28;20043;-86
2022/10/27 12:06:59;;;;;;;2.65;1.10;;;17.90;99.90;;;;;;5108109;28;20037;-86
2022/10/27 12:09:42;;;;;;;6.50;1.13;;;17.80;99.90;;;;;;5104452;28;20047;-86
2022/10/27 12:12:17;;;;;;;3.47;1.20;;;17.80;99.90;;;;;;5099948;28;20040;-86
2022/10/27 12:14:49;;;;;;;7.60;1.20;;;17.80;99.90;;;;;;5109140;28;20075;-86
2022/10/27 12:17:50;;;;;;;4.03;0.93;;;17.80;99.90;;;;;;5109241;28;20416;-86
2022/10/27 12:20:39;;;;;;;4.32;1.10;;;17.80;99.90;;;;;;5109606;28;20040;-86
2022/10/27 12:23:16;;;;;;;3.53;1.23;;;17.80;99.90;;;;;;5126516;28;20109;-86
2022/10/27 12:25:54;;;;;;;3.20;0.93;;;17.80;99.90;;;;;;5110288;28;20069;-86
2022/10/27 12:28:25;;;;;;;2.60;1.23;;;17.70;99.90;;;;;;5109382;28;20048;-86
2022/10/27 12:30:53;;;;;;;1.90;0.90;;;17.70;99.90;;;;;;5109742;28;20040;-86
2022/10/27 12:33:27;;;;;;;4.00;1.20;;;17.70;99.90;;;;;;5126716;28;20071;-86
2022/10/27 12:36:18;;;;;;;4.50;1.40;;;17.80;99.90;;;;;;5110072;28;20040;-86
2022/10/27 12:38:54;;;;;;;2.30;1.10;;;17.80;99.90;;;;;;5126551;28;20040;-86
2022/10/27 12:41:31;;;;;;;4.00;1.20;;;17.80;99.90;;;;;;5126438;28;20032;-86
2022/10/27 12:44:41;;;;;;;2.15;1.00;;;17.80;99.90;;;;;;5109462;28;20032;-86
2022/10/27 12:47:36;;;;;;;1.90;0.90;;;17.80;99.90;;;;;;5109729;28;20031;-86
2022/10/27 12:50:19;;;;;;;5.65;1.63;;;17.70;99.90;;;;;;5109346;28;20039;-86
2022/10/27 12:52:59;;;;;;;2.17;0.93;;;17.70;99.90;;;;;;5100637;28;20135;-86
2022/10/27 12:55:35;;;;;;;4.13;1.20;;;17.70;99.90;;;;;;5110824;28;20102;-86
2022/10/27 12:58:08;;;;;;;3.63;1.00;;;17.70;99.90;;;;;;5103460;28;20036;-85
2022/10/27 13:01:07;;;;;;;4.13;1.20;;;17.70;99.90;;;;;;5100348;28;20048;-86
2022/10/27 13:04:00;;;;;;;3.05;1.10;;;17.60;99.90;;;;;;5088530;28;20079;-86
2022/10/27 13:06:50;;;;;;;3.92;1.15;;;17.70;99.90;;;;;;5123395;28;20085;-86
2022/10/27 13:09:35;;;;;;;3.35;1.13;;;17.70;99.90;;;;;;5125818;28;20086;-85